M/V Wayne T Mosley — WDF2092 — position and weather

sailwx.info

Track history (hours):
 
Tides and Currents Weather Stations Pressure Air Temp Water Temp Dewpoint Dewpoint Depression Visibility Wind Speed Wind Dir Waves Ship Positions

M/V Wayne T Mosley

Owner: Blessey Enterprises Inc., Harahan, LA. More information available from US FCC via Universal Licensing System and Coast Guard Vessel Documentation Center.

Last reported at 2017-Nov-11 14:05 UTC. Time now 2017-Nov-21 02:38 UTC.
Position N 29°31' W 094°53'.
Warning: this ship's position is 9 days out of date.

Length 25 m; draft 3 m.

Type: Towing. MMSI: 367424750.

Date/timePositionNaut miles runAvg speedWind from/ knotsBaromVisibWave heightAir tempDewpointWater temp
2017-Nov-11 14:05N 29°31' W 094°53'1 7.1
2017-Nov-11 14:00N 29°31' W 094°53'3 6.8
2017-Nov-11 13:30N 29°34' W 094°55'3 6.8
2017-Nov-11 13:00N 29°37' W 094°57'4 7.1
2017-Nov-11 12:30N 29°40' W 094°59'3 6.4
2017-Nov-11 11:59N 29°43' W 095°01'5 1.6
2017-Nov-11 08:56N 29°47' W 095°04'2 2.7
2017-Nov-11 08:21N 29°45' W 095°04'2 0.1
2017-Nov-10 15:27N 29°44' W 095°03'0 0.9
2017-Nov-10 15:00N 29°44' W 095°03'3 0.2
2017-Nov-09 23:27N 29°47' W 095°05'1 0.0
2017-Nov-08 14:08N 29°47' W 095°05'1 2.6
2017-Nov-08 13:49N 29°46' W 095°05'2 4.6
2017-Nov-08 13:30N 29°45' W 095°04'2 4.4
2017-Nov-08 13:00N 29°44' W 095°01'1 0.0
2017-Nov-07 21:14N 29°44' W 095°02'3 6.0
2017-Nov-07 20:40N 29°46' W 095°05'1 0.1
2017-Nov-07 11:23N 29°47' W 095°05'1 0.9
2017-Nov-07 10:24N 29°46' W 095°05'1 2.2
2017-Nov-07 09:52N 29°45' W 095°04'1 2.4
2017-Nov-07 09:28N 29°45' W 095°04'0 0.4
2017-Nov-07 09:00N 29°44' W 095°03'2 4.4
2017-Nov-07 08:30N 29°43' W 095°01'3 6.5
2017-Nov-07 08:00N 29°41' W 094°59'4 7.9
2017-Nov-07 07:30N 29°37' W 094°57'4 7.8
2017-Nov-07 07:00N 29°34' W 094°55'94 3.3
2017-Nov-06 02:30N 29°58' W 093°11'2 4.7
2017-Nov-06 02:00N 29°56' W 093°09'41 4.9
2017-Nov-05 17:33N 29°51' W 092°22'0 4.9
2017-Nov-05 17:27N 29°51' W 092°21'1 2.8
2017-Nov-05 17:00N 29°51' W 092°20'2 3.9
2017-Nov-05 16:30N 29°50' W 092°18'3 5.2
2017-Nov-05 16:00N 29°48' W 092°15'3 5.7
2017-Nov-05 15:30N 29°47' W 092°12'1 2.0
2017-Nov-05 15:00N 29°47' W 092°11'0 0.0
2017-Nov-05 14:30N 29°47' W 092°11'0 0.0
2017-Nov-05 14:00N 29°47' W 092°11'0 0.7
2017-Nov-05 13:30N 29°47' W 092°11'2 4.0
2017-Nov-05 13:00N 29°47' W 092°09'3 5.4
2017-Nov-05 12:30N 29°48' W 092°06'3 5.3
2017-Nov-05 12:00N 29°49' W 092°03'3 5.7
2017-Nov-05 11:30N 29°50' W 091°60'3 5.5
2017-Nov-05 10:52N 29°51' W 091°56'54 3.9
2017-Nov-04 21:02N 29°34' W 090°56'0 5.5
2017-Nov-04 20:59N 29°34' W 090°56'4 5.5
2017-Nov-04 20:16N 29°32' W 090°52'1 5.3
2017-Nov-04 20:00N 29°32' W 090°50'3 5.3
2017-Nov-04 19:30N 29°32' W 090°47'2 4.2
2017-Nov-04 19:00N 29°33' W 090°45'2 3.9
2017-Nov-04 18:30N 29°34' W 090°43'2 3.7
2017-Nov-04 18:00N 29°36' W 090°43'1 2.7
2017-Nov-04 17:30N 29°37' W 090°41'2 4.2
2017-Nov-04 17:00N 29°36' W 090°39'2 4.9
2017-Nov-04 16:30N 29°35' W 090°37'2 4.8
2017-Nov-04 16:00N 29°34' W 090°34'2 5.0
2017-Nov-04 15:30N 29°34' W 090°31'  
Track history (hours):
 
Tides and Currents Weather Stations Pressure Air Temp Water Temp Dewpoint Dewpoint Depression Visibility Wind Speed Wind Dir Waves Ship Positions

M/V Wayne T Mosley

Owner: Blessey Enterprises Inc., Harahan, LA. More information available from US FCC via Universal Licensing System and Coast Guard Vessel Documentation Center.

Last reported at 2017-Nov-11 14:05 UTC. Time now 2017-Nov-21 02:38 UTC.
Position N 29°31' W 094°53'.
Warning: this ship's position is 9 days out of date.

Length 25 m; draft 3 m.

Type: Towing. MMSI: 367424750.

Date/timePositionNaut miles runAvg speedWind from/ knotsBaromVisibWave heightAir tempDewpointWater temp
2017-Nov-11 14:05N 29°31' W 094°53'1 7.1
2017-Nov-11 14:00N 29°31' W 094°53'3 6.8
2017-Nov-11 13:30N 29°34' W 094°55'3 6.8
2017-Nov-11 13:00N 29°37' W 094°57'4 7.1
2017-Nov-11 12:30N 29°40' W 094°59'3 6.4
2017-Nov-11 11:59N 29°43' W 095°01'5 1.6
2017-Nov-11 08:56N 29°47' W 095°04'2 2.7
2017-Nov-11 08:21N 29°45' W 095°04'2 0.1
2017-Nov-10 15:27N 29°44' W 095°03'0 0.9
2017-Nov-10 15:00N 29°44' W 095°03'3 0.2
2017-Nov-09 23:27N 29°47' W 095°05'1 0.0
2017-Nov-08 14:08N 29°47' W 095°05'1 2.6
2017-Nov-08 13:49N 29°46' W 095°05'2 4.6
2017-Nov-08 13:30N 29°45' W 095°04'2 4.4
2017-Nov-08 13:00N 29°44' W 095°01'1 0.0
2017-Nov-07 21:14N 29°44' W 095°02'3 6.0
2017-Nov-07 20:40N 29°46' W 095°05'1 0.1
2017-Nov-07 11:23N 29°47' W 095°05'1 0.9
2017-Nov-07 10:24N 29°46' W 095°05'1 2.2
2017-Nov-07 09:52N 29°45' W 095°04'1 2.4
2017-Nov-07 09:28N 29°45' W 095°04'0 0.4
2017-Nov-07 09:00N 29°44' W 095°03'2 4.4
2017-Nov-07 08:30N 29°43' W 095°01'3 6.5
2017-Nov-07 08:00N 29°41' W 094°59'4 7.9
2017-Nov-07 07:30N 29°37' W 094°57'4 7.8
2017-Nov-07 07:00N 29°34' W 094°55'94 3.3
2017-Nov-06 02:30N 29°58' W 093°11'2 4.7
2017-Nov-06 02:00N 29°56' W 093°09'41 4.9
2017-Nov-05 17:33N 29°51' W 092°22'0 4.9
2017-Nov-05 17:27N 29°51' W 092°21'1 2.8
2017-Nov-05 17:00N 29°51' W 092°20'2 3.9
2017-Nov-05 16:30N 29°50' W 092°18'3 5.2
2017-Nov-05 16:00N 29°48' W 092°15'3 5.7
2017-Nov-05 15:30N 29°47' W 092°12'1 2.0
2017-Nov-05 15:00N 29°47' W 092°11'0 0.0
2017-Nov-05 14:30N 29°47' W 092°11'0 0.0
2017-Nov-05 14:00N 29°47' W 092°11'0 0.7
2017-Nov-05 13:30N 29°47' W 092°11'2 4.0
2017-Nov-05 13:00N 29°47' W 092°09'3 5.4
2017-Nov-05 12:30N 29°48' W 092°06'3 5.3
2017-Nov-05 12:00N 29°49' W 092°03'3 5.7
2017-Nov-05 11:30N 29°50' W 091°60'3 5.5
2017-Nov-05 10:52N 29°51' W 091°56'54 3.9
2017-Nov-04 21:02N 29°34' W 090°56'0 5.5
2017-Nov-04 20:59N 29°34' W 090°56'4 5.5
2017-Nov-04 20:16N 29°32' W 090°52'1 5.3
2017-Nov-04 20:00N 29°32' W 090°50'3 5.3
2017-Nov-04 19:30N 29°32' W 090°47'2 4.2
2017-Nov-04 19:00N 29°33' W 090°45'2 3.9
2017-Nov-04 18:30N 29°34' W 090°43'2 3.7
2017-Nov-04 18:00N 29°36' W 090°43'1 2.7
2017-Nov-04 17:30N 29°37' W 090°41'2 4.2
2017-Nov-04 17:00N 29°36' W 090°39'2 4.9
2017-Nov-04 16:30N 29°35' W 090°37'2 4.8
2017-Nov-04 16:00N 29°34' W 090°34'2 5.0
2017-Nov-04 15:30N 29°34' W 090°31'  

Dump ship's entire track history